sensor_id;sensor_type;location;lat;lon;timestamp;P1;durP1;ratioP1;P2;durP2;ratioP2
62724;SDS011;49026;52.600;4.694;2022-08-04T00:05:34;4.32;;;2.10;;
62724;SDS011;49026;52.600;4.694;2022-08-04T00:08:10;3.83;;;1.90;;
62724;SDS011;49026;52.600;4.694;2022-08-04T00:10:38;7.38;;;2.60;;
62724;SDS011;49026;52.600;4.694;2022-08-04T00:13:06;7.18;;;2.50;;
62724;SDS011;49026;52.600;4.694;2022-08-04T00:15:33;6.47;;;2.00;;
62724;SDS011;49026;52.600;4.694;2022-08-04T00:18:00;9.65;;;1.90;;
62724;SDS011;49026;52.600;4.694;2022-08-04T00:20:29;5.78;;;2.25;;
62724;SDS011;49026;52.600;4.694;2022-08-04T00:23:01;5.88;;;2.03;;
62724;SDS011;49026;52.600;4.694;2022-08-04T00:25:29;6.93;;;2.20;;
62724;SDS011;49026;52.600;4.694;2022-08-04T00:27:55;3.67;;;1.88;;
62724;SDS011;49026;52.600;4.694;2022-08-04T00:30:21;9.63;;;2.05;;
62724;SDS011;49026;52.600;4.694;2022-08-04T00:32:46;8.73;;;2.92;;
62724;SDS011;49026;52.600;4.694;2022-08-04T00:35:12;5.90;;;2.67;;
62724;SDS011;49026;52.600;4.694;2022-08-04T00:37:38;7.78;;;2.60;;
62724;SDS011;49026;52.600;4.694;2022-08-04T00:40:20;4.90;;;2.58;;
62724;SDS011;49026;52.600;4.694;2022-08-04T00:43:07;7.35;;;2.38;;
62724;SDS011;49026;52.600;4.694;2022-08-04T00:48:21;4.53;;;2.08;;
62724;SDS011;49026;52.600;4.694;2022-08-04T00:59:20;4.05;;;2.17;;
62724;SDS011;49026;52.600;4.694;2022-08-04T01:12:42;3.35;;;1.90;;
62724;SDS011;49026;52.600;4.694;2022-08-04T01:15:23;9.27;;;2.72;;
62724;SDS011;49026;52.600;4.694;2022-08-04T01:24:09;5.10;;;2.08;;
62724;SDS011;49026;52.600;4.694;2022-08-04T01:27:15;7.60;;;2.45;;
62724;SDS011;49026;52.600;4.694;2022-08-04T01:29:44;7.10;;;2.20;;
62724;SDS011;49026;52.600;4.694;2022-08-04T01:34:50;8.07;;;2.13;;
62724;SDS011;49026;52.600;4.694;2022-08-04T01:37:23;5.88;;;2.22;;
62724;SDS011;49026;52.600;4.694;2022-08-04T01:40:12;9.57;;;2.47;;
62724;SDS011;49026;52.600;4.694;2022-08-04T01:42:40;7.25;;;2.40;;
62724;SDS011;49026;52.600;4.694;2022-08-04T01:45:07;7.57;;;2.95;;
62724;SDS011;49026;52.600;4.694;2022-08-04T01:47:35;4.28;;;2.75;;
62724;SDS011;49026;52.600;4.694;2022-08-04T01:50:08;8.27;;;3.13;;
62724;SDS011;49026;52.600;4.694;2022-08-04T01:52:36;7.28;;;2.60;;
62724;SDS011;49026;52.600;4.694;2022-08-04T01:55:07;5.07;;;2.53;;
62724;SDS011;49026;52.600;4.694;2022-08-04T01:57:41;11.77;;;3.55;;
62724;SDS011;49026;52.600;4.694;2022-08-04T02:00:07;11.05;;;2.85;;
62724;SDS011;49026;52.600;4.694;2022-08-04T02:02:34;7.47;;;3.70;;
62724;SDS011;49026;52.600;4.694;2022-08-04T02:04:59;9.02;;;2.70;;
62724;SDS011;49026;52.600;4.694;2022-08-04T02:10:06;7.93;;;2.88;;
62724;SDS011;49026;52.600;4.694;2022-08-04T02:15:16;7.25;;;2.70;;
62724;SDS011;49026;52.600;4.694;2022-08-04T02:18:06;5.47;;;2.70;;
62724;SDS011;49026;52.600;4.694;2022-08-04T02:20:43;10.73;;;3.28;;
62724;SDS011;49026;52.600;4.694;2022-08-04T02:23:19;8.75;;;2.92;;
62724;SDS011;49026;52.600;4.694;2022-08-04T02:26:18;6.30;;;2.72;;
62724;SDS011;49026;52.600;4.694;2022-08-04T02:36:47;10.10;;;3.22;;
62724;SDS011;49026;52.600;4.694;2022-08-04T02:39:16;5.93;;;3.08;;
62724;SDS011;49026;52.600;4.694;2022-08-04T02:41:44;9.32;;;3.00;;
62724;SDS011;49026;52.600;4.694;2022-08-04T02:44:11;11.68;;;3.40;;
62724;SDS011;49026;52.600;4.694;2022-08-04T02:46:43;6.68;;;3.30;;
62724;SDS011;49026;52.600;4.694;2022-08-04T02:49:11;11.15;;;3.42;;
62724;SDS011;49026;52.600;4.694;2022-08-04T02:51:42;12.45;;;3.38;;
62724;SDS011;49026;52.600;4.694;2022-08-04T02:54:11;8.35;;;3.20;;
62724;SDS011;49026;52.600;4.694;2022-08-04T02:56:39;12.10;;;3.47;;
62724;SDS011;49026;52.600;4.694;2022-08-04T02:59:10;7.53;;;3.30;;
62724;SDS011;49026;52.600;4.694;2022-08-04T03:01:37;7.50;;;3.28;;
62724;SDS011;49026;52.600;4.694;2022-08-04T03:04:23;9.98;;;3.25;;
62724;SDS011;49026;52.600;4.694;2022-08-04T03:19:05;9.63;;;3.83;;
62724;SDS011;49026;52.600;4.694;2022-08-04T03:31:05;7.85;;;3.47;;
62724;SDS011;49026;52.600;4.694;2022-08-04T03:39:24;9.85;;;3.75;;
62724;SDS011;49026;52.600;4.694;2022-08-04T03:41:59;14.18;;;3.63;;
62724;SDS011;49026;52.600;4.694;2022-08-04T03:44:58;8.60;;;4.05;;
62724;SDS011;49026;52.600;4.694;2022-08-04T03:47:59;6.68;;;3.75;;
62724;SDS011;49026;52.600;4.694;2022-08-04T03:53:43;7.22;;;3.10;;
62724;SDS011;49026;52.600;4.694;2022-08-04T04:04:40;10.27;;;3.65;;
62724;SDS011;49026;52.600;4.694;2022-08-04T04:15:50;11.52;;;3.90;;
62724;SDS011;49026;52.600;4.694;2022-08-04T04:40:52;22.17;;;5.10;;
62724;SDS011;49026;52.600;4.694;2022-08-04T04:46:45;8.20;;;3.80;;
62724;SDS011;49026;52.600;4.694;2022-08-04T04:49:30;11.85;;;4.68;;
62724;SDS011;49026;52.600;4.694;2022-08-04T04:54:57;7.70;;;4.07;;
62724;SDS011;49026;52.600;4.694;2022-08-04T04:57:28;8.18;;;3.75;;
62724;SDS011;49026;52.600;4.694;2022-08-04T04:59:59;14.82;;;3.80;;
62724;SDS011;49026;52.600;4.694;2022-08-04T05:13:48;7.22;;;3.38;;
62724;SDS011;49026;52.600;4.694;2022-08-04T05:16:28;9.00;;;2.42;;
62724;SDS011;49026;52.600;4.694;2022-08-04T05:21:32;10.57;;;2.92;;
62724;SDS011;49026;52.600;4.694;2022-08-04T05:23:59;8.45;;;2.33;;
62724;SDS011;49026;52.600;4.694;2022-08-04T05:26:29;11.63;;;2.83;;
62724;SDS011;49026;52.600;4.694;2022-08-04T05:29:02;12.75;;;2.40;;
62724;SDS011;49026;52.600;4.694;2022-08-04T05:31:33;10.35;;;3.15;;
62724;SDS011;49026;52.600;4.694;2022-08-04T05:36:47;7.05;;;2.50;;
62724;SDS011;49026;52.600;4.694;2022-08-04T05:39:18;7.18;;;2.67;;
62724;SDS011;49026;52.600;4.694;2022-08-04T05:41:48;8.85;;;2.60;;
62724;SDS011;49026;52.600;4.694;2022-08-04T05:44:15;14.43;;;2.88;;
62724;SDS011;49026;52.600;4.694;2022-08-04T05:46:42;9.43;;;2.58;;
62724;SDS011;49026;52.600;4.694;2022-08-04T05:49:12;8.07;;;2.60;;
62724;SDS011;49026;52.600;4.694;2022-08-04T05:51:38;6.40;;;2.35;;
62724;SDS011;49026;52.600;4.694;2022-08-04T05:54:04;10.30;;;2.78;;
62724;SDS011;49026;52.600;4.694;2022-08-04T05:56:31;6.78;;;2.88;;
62724;SDS011;49026;52.600;4.694;2022-08-04T05:59:00;6.35;;;2.33;;
62724;SDS011;49026;52.600;4.694;2022-08-04T06:01:28;7.03;;;2.30;;
62724;SDS011;49026;52.600;4.694;2022-08-04T06:03:56;9.02;;;2.85;;
62724;SDS011;49026;52.600;4.694;2022-08-04T06:06:26;10.75;;;2.80;;
62724;SDS011;49026;52.600;4.694;2022-08-04T06:08:53;10.15;;;2.85;;
62724;SDS011;49026;52.600;4.694;2022-08-04T06:11:21;7.05;;;2.45;;
62724;SDS011;49026;52.600;4.694;2022-08-04T06:13:55;10.15;;;2.50;;
62724;SDS011;49026;52.600;4.694;2022-08-04T06:16:23;11.60;;;3.17;;
62724;SDS011;49026;52.600;4.694;2022-08-04T06:18:50;16.88;;;3.03;;
62724;SDS011;49026;52.600;4.694;2022-08-04T06:21:21;7.80;;;2.50;;
62724;SDS011;49026;52.600;4.694;2022-08-04T06:23:51;8.57;;;2.33;;
62724;SDS011;49026;52.600;4.694;2022-08-04T06:26:18;10.40;;;2.38;;
62724;SDS011;49026;52.600;4.694;2022-08-04T06:28:46;15.25;;;2.28;;
62724;SDS011;49026;52.600;4.694;2022-08-04T06:31:14;7.32;;;2.42;;
62724;SDS011;49026;52.600;4.694;2022-08-04T06:33:55;9.02;;;2.20;;
62724;SDS011;49026;52.600;4.694;2022-08-04T06:36:26;7.38;;;1.92;;
62724;SDS011;49026;52.600;4.694;2022-08-04T06:38:57;6.55;;;2.15;;
62724;SDS011;49026;52.600;4.694;2022-08-04T06:41:24;5.65;;;1.65;;
62724;SDS011;49026;52.600;4.694;2022-08-04T06:43:50;4.25;;;1.80;;
62724;SDS011;49026;52.600;4.694;2022-08-04T06:46:16;11.88;;;2.17;;
62724;SDS011;49026;52.600;4.694;2022-08-04T06:48:45;6.60;;;1.80;;
62724;SDS011;49026;52.600;4.694;2022-08-04T06:51:11;6.95;;;2.15;;
62724;SDS011;49026;52.600;4.694;2022-08-04T06:53:41;10.43;;;2.47;;
62724;SDS011;49026;52.600;4.694;2022-08-04T06:56:06;8.20;;;1.70;;
62724;SDS011;49026;52.600;4.694;2022-08-04T06:58:33;12.05;;;2.08;;
62724;SDS011;49026;52.600;4.694;2022-08-04T07:00:59;6.32;;;1.50;;
62724;SDS011;49026;52.600;4.694;2022-08-04T07:03:26;6.97;;;2.00;;
62724;SDS011;49026;52.600;4.694;2022-08-04T07:05:52;8.05;;;1.75;;
62724;SDS011;49026;52.600;4.694;2022-08-04T07:08:19;6.18;;;1.65;;
62724;SDS011;49026;52.600;4.694;2022-08-04T07:10:45;8.73;;;1.85;;
62724;SDS011;49026;52.600;4.694;2022-08-04T07:13:11;9.85;;;1.42;;
62724;SDS011;49026;52.600;4.694;2022-08-04T07:15:37;4.95;;;1.27;;
62724;SDS011;49026;52.600;4.694;2022-08-04T07:18:05;6.88;;;1.55;;
62724;SDS011;49026;52.600;4.694;2022-08-04T07:20:36;6.97;;;1.65;;
62724;SDS011;49026;52.600;4.694;2022-08-04T07:23:05;5.00;;;1.60;;
62724;SDS011;49026;52.600;4.694;2022-08-04T07:25:34;6.68;;;1.50;;
62724;SDS011;49026;52.600;4.694;2022-08-04T07:28:02;6.43;;;1.48;;
62724;SDS011;49026;52.600;4.694;2022-08-04T07:30:28;4.47;;;1.60;;
62724;SDS011;49026;52.600;4.694;2022-08-04T07:32:57;5.38;;;1.38;;
62724;SDS011;49026;52.600;4.694;2022-08-04T07:35:23;5.30;;;1.50;;
62724;SDS011;49026;52.600;4.694;2022-08-04T07:37:49;5.40;;;1.30;;
62724;SDS011;49026;52.600;4.694;2022-08-04T07:40:17;7.28;;;1.55;;
62724;SDS011;49026;52.600;4.694;2022-08-04T07:42:42;5.47;;;1.60;;
62724;SDS011;49026;52.600;4.694;2022-08-04T07:45:09;10.85;;;1.60;;
62724;SDS011;49026;52.600;4.694;2022-08-04T07:47:34;6.97;;;1.70;;
62724;SDS011;49026;52.600;4.694;2022-08-04T07:50:00;6.03;;;1.50;;
62724;SDS011;49026;52.600;4.694;2022-08-04T07:52:26;8.85;;;1.70;;
62724;SDS011;49026;52.600;4.694;2022-08-04T07:54:52;8.45;;;1.63;;
62724;SDS011;49026;52.600;4.694;2022-08-04T07:57:17;11.00;;;1.75;;
62724;SDS011;49026;52.600;4.694;2022-08-04T07:59:46;5.47;;;1.95;;
62724;SDS011;49026;52.600;4.694;2022-08-04T08:02:14;2.63;;;1.10;;
62724;SDS011;49026;52.600;4.694;2022-08-04T08:04:42;3.60;;;1.30;;
62724;SDS011;49026;52.600;4.694;2022-08-04T08:07:09;4.90;;;1.73;;
62724;SDS011;49026;52.600;4.694;2022-08-04T08:09:34;3.67;;;1.23;;
62724;SDS011;49026;52.600;4.694;2022-08-04T08:12:00;4.57;;;1.30;;
62724;SDS011;49026;52.600;4.694;2022-08-04T08:14:26;6.43;;;1.52;;
62724;SDS011;49026;52.600;4.694;2022-08-04T08:16:54;6.38;;;1.52;;
62724;SDS011;49026;52.600;4.694;2022-08-04T08:19:20;7.13;;;1.25;;
62724;SDS011;49026;52.600;4.694;2022-08-04T08:21:47;3.15;;;1.20;;
62724;SDS011;49026;52.600;4.694;2022-08-04T08:24:13;7.07;;;1.35;;
62724;SDS011;49026;52.600;4.694;2022-08-04T08:26:42;4.47;;;1.10;;
62724;SDS011;49026;52.600;4.694;2022-08-04T08:29:08;8.93;;;1.60;;
62724;SDS011;49026;52.600;4.694;2022-08-04T08:31:34;9.48;;;1.58;;
62724;SDS011;49026;52.600;4.694;2022-08-04T08:33:59;5.97;;;1.45;;
62724;SDS011;49026;52.600;4.694;2022-08-04T08:39:00;3.47;;;1.30;;
62724;SDS011;49026;52.600;4.694;2022-08-04T08:50:17;10.00;;;1.63;;
62724;SDS011;49026;52.600;4.694;2022-08-04T09:11:57;6.72;;;1.92;;
62724;SDS011;49026;52.600;4.694;2022-08-04T09:14:32;3.80;;;1.10;;
62724;SDS011;49026;52.600;4.694;2022-08-04T09:17:06;5.88;;;1.50;;
62724;SDS011;49026;52.600;4.694;2022-08-04T09:19:43;4.03;;;1.30;;
62724;SDS011;49026;52.600;4.694;2022-08-04T09:22:15;6.72;;;1.30;;
62724;SDS011;49026;52.600;4.694;2022-08-04T09:24:49;4.55;;;1.33;;
62724;SDS011;49026;52.600;4.694;2022-08-04T09:27:30;7.15;;;1.65;;
62724;SDS011;49026;52.600;4.694;2022-08-04T09:32:32;4.93;;;1.52;;
62724;SDS011;49026;52.600;4.694;2022-08-04T09:35:18;8.68;;;2.00;;
62724;SDS011;49026;52.600;4.694;2022-08-04T09:38:09;9.27;;;1.65;;
62724;SDS011;49026;52.600;4.694;2022-08-04T09:40:58;3.60;;;1.33;;
62724;SDS011;49026;52.600;4.694;2022-08-04T09:46:17;5.40;;;1.50;;
62724;SDS011;49026;52.600;4.694;2022-08-04T09:51:23;3.50;;;1.17;;
62724;SDS011;49026;52.600;4.694;2022-08-04T09:54:02;5.28;;;1.52;;
62724;SDS011;49026;52.600;4.694;2022-08-04T09:56:40;5.55;;;1.45;;
62724;SDS011;49026;52.600;4.694;2022-08-04T10:01:55;6.15;;;1.40;;
62724;SDS011;49026;52.600;4.694;2022-08-04T10:04:23;4.20;;;1.67;;
62724;SDS011;49026;52.600;4.694;2022-08-04T10:06:58;6.73;;;1.60;;
62724;SDS011;49026;52.600;4.694;2022-08-04T10:12:15;4.93;;;1.25;;
62724;SDS011;49026;52.600;4.694;2022-08-04T10:23:32;6.18;;;1.50;;
62724;SDS011;49026;52.600;4.694;2022-08-04T10:28:34;5.95;;;1.13;;
62724;SDS011;49026;52.600;4.694;2022-08-04T10:31:08;8.73;;;1.73;;
62724;SDS011;49026;52.600;4.694;2022-08-04T10:33:48;3.90;;;1.23;;
62724;SDS011;49026;52.600;4.694;2022-08-04T10:36:18;6.75;;;1.58;;
62724;SDS011;49026;52.600;4.694;2022-08-04T10:44:33;6.97;;;1.63;;
62724;SDS011;49026;52.600;4.694;2022-08-04T10:47:13;5.20;;;1.25;;
62724;SDS011;49026;52.600;4.694;2022-08-04T10:49:44;5.75;;;1.40;;
62724;SDS011;49026;52.600;4.694;2022-08-04T10:52:24;5.00;;;1.58;;
62724;SDS011;49026;52.600;4.694;2022-08-04T10:54:56;8.23;;;1.55;;
62724;SDS011;49026;52.600;4.694;2022-08-04T10:57:28;5.15;;;1.25;;
62724;SDS011;49026;52.600;4.694;2022-08-04T11:00:08;4.82;;;1.50;;
62724;SDS011;49026;52.600;4.694;2022-08-04T11:02:50;7.05;;;1.63;;
62724;SDS011;49026;52.600;4.694;2022-08-04T11:05:34;7.20;;;1.60;;
62724;SDS011;49026;52.600;4.694;2022-08-04T11:08:22;4.85;;;1.48;;
62724;SDS011;49026;52.600;4.694;2022-08-04T11:13:31;6.30;;;1.70;;
62724;SDS011;49026;52.600;4.694;2022-08-04T11:16:03;8.40;;;1.50;;
62724;SDS011;49026;52.600;4.694;2022-08-04T11:18:45;4.50;;;1.38;;
62724;SDS011;49026;52.600;4.694;2022-08-04T11:21:22;3.70;;;1.27;;
62724;SDS011;49026;52.600;4.694;2022-08-04T11:23:58;5.93;;;1.48;;
62724;SDS011;49026;52.600;4.694;2022-08-04T11:26:30;4.50;;;1.30;;
62724;SDS011;49026;52.600;4.694;2022-08-04T11:29:24;4.32;;;1.20;;
62724;SDS011;49026;52.600;4.694;2022-08-04T11:31:56;5.57;;;1.50;;
62724;SDS011;49026;52.600;4.694;2022-08-04T11:34:26;3.00;;;1.17;;
62724;SDS011;49026;52.600;4.694;2022-08-04T11:39:46;4.57;;;1.35;;
62724;SDS011;49026;52.600;4.694;2022-08-04T11:42:28;3.03;;;1.02;;
62724;SDS011;49026;52.600;4.694;2022-08-04T11:50:13;4.35;;;1.15;;
62724;SDS011;49026;52.600;4.694;2022-08-04T11:52:44;6.75;;;1.50;;
62724;SDS011;49026;52.600;4.694;2022-08-04T11:55:15;4.15;;;0.98;;
62724;SDS011;49026;52.600;4.694;2022-08-04T11:57:45;6.25;;;1.40;;
62724;SDS011;49026;52.600;4.694;2022-08-04T12:00:11;4.80;;;1.50;;
62724;SDS011;49026;52.600;4.694;2022-08-04T12:06:05;8.10;;;1.63;;
62724;SDS011;49026;52.600;4.694;2022-08-04T12:08:39;5.70;;;1.17;;
62724;SDS011;49026;52.600;4.694;2022-08-04T12:11:53;2.92;;;1.27;;
62724;SDS011;49026;52.600;4.694;2022-08-04T12:16:47;4.93;;;1.60;;
62724;SDS011;49026;52.600;4.694;2022-08-04T12:19:26;4.75;;;1.20;;
62724;SDS011;49026;52.600;4.694;2022-08-04T12:21:56;4.10;;;1.20;;
62724;SDS011;49026;52.600;4.694;2022-08-04T12:24:36;5.45;;;1.50;;
62724;SDS011;49026;52.600;4.694;2022-08-04T12:27:19;4.15;;;1.30;;
62724;SDS011;49026;52.600;4.694;2022-08-04T12:29:49;4.43;;;1.23;;
62724;SDS011;49026;52.600;4.694;2022-08-04T12:32:30;3.92;;;1.10;;
62724;SDS011;49026;52.600;4.694;2022-08-04T12:35:20;5.63;;;1.20;;
62724;SDS011;49026;52.600;4.694;2022-08-04T12:37:55;2.97;;;1.02;;
62724;SDS011;49026;52.600;4.694;2022-08-04T12:40:41;4.43;;;1.30;;
62724;SDS011;49026;52.600;4.694;2022-08-04T12:43:12;11.70;;;2.10;;
62724;SDS011;49026;52.600;4.694;2022-08-04T12:45:48;4.97;;;1.30;;
62724;SDS011;49026;52.600;4.694;2022-08-04T12:48:17;7.33;;;1.40;;
62724;SDS011;49026;52.600;4.694;2022-08-04T12:50:49;6.67;;;1.50;;
62724;SDS011;49026;52.600;4.694;2022-08-04T12:53:18;4.78;;;1.60;;
62724;SDS011;49026;52.600;4.694;2022-08-04T12:55:48;7.55;;;1.80;;
62724;SDS011;49026;52.600;4.694;2022-08-04T12:58:17;7.25;;;1.65;;
62724;SDS011;49026;52.600;4.694;2022-08-04T13:00:51;6.88;;;1.83;;
62724;SDS011;49026;52.600;4.694;2022-08-04T13:03:20;3.10;;;1.23;;
62724;SDS011;49026;52.600;4.694;2022-08-04T13:05:48;6.70;;;1.50;;
62724;SDS011;49026;52.600;4.694;2022-08-04T13:08:21;6.72;;;1.80;;
62724;SDS011;49026;52.600;4.694;2022-08-04T13:10:48;7.53;;;1.92;;
62724;SDS011;49026;52.600;4.694;2022-08-04T13:13:20;7.05;;;1.90;;
62724;SDS011;49026;52.600;4.694;2022-08-04T13:15:56;6.43;;;1.50;;
62724;SDS011;49026;52.600;4.694;2022-08-04T13:18:29;6.45;;;1.90;;
62724;SDS011;49026;52.600;4.694;2022-08-04T13:24:05;8.98;;;2.30;;
62724;SDS011;49026;52.600;4.694;2022-08-04T13:26:34;5.50;;;1.77;;
62724;SDS011;49026;52.600;4.694;2022-08-04T13:29:02;6.18;;;1.75;;
62724;SDS011;49026;52.600;4.694;2022-08-04T13:31:30;18.95;;;2.38;;
62724;SDS011;49026;52.600;4.694;2022-08-04T13:34:04;9.27;;;1.60;;
62724;SDS011;49026;52.600;4.694;2022-08-04T13:36:32;7.63;;;1.70;;
62724;SDS011;49026;52.600;4.694;2022-08-04T13:39:21;6.50;;;1.45;;
62724;SDS011;49026;52.600;4.694;2022-08-04T13:41:50;8.07;;;1.63;;
62724;SDS011;49026;52.600;4.694;2022-08-04T13:44:19;8.60;;;1.63;;
62724;SDS011;49026;52.600;4.694;2022-08-04T13:46:49;5.97;;;1.70;;
62724;SDS011;49026;52.600;4.694;2022-08-04T13:49:17;3.10;;;1.40;;
62724;SDS011;49026;52.600;4.694;2022-08-04T13:51:48;6.25;;;1.38;;
62724;SDS011;49026;52.600;4.694;2022-08-04T13:54:18;5.70;;;1.42;;
62724;SDS011;49026;52.600;4.694;2022-08-04T13:56:45;7.45;;;1.50;;
62724;SDS011;49026;52.600;4.694;2022-08-04T13:59:13;6.90;;;1.85;;
62724;SDS011;49026;52.600;4.694;2022-08-04T14:01:41;2.92;;;1.30;;
62724;SDS011;49026;52.600;4.694;2022-08-04T14:04:13;9.30;;;1.60;;
62724;SDS011;49026;52.600;4.694;2022-08-04T14:06:48;8.18;;;2.05;;
62724;SDS011;49026;52.600;4.694;2022-08-04T14:09:19;6.68;;;1.55;;
62724;SDS011;49026;52.600;4.694;2022-08-04T14:11:50;5.60;;;1.85;;
62724;SDS011;49026;52.600;4.694;2022-08-04T14:16:58;7.03;;;1.88;;
62724;SDS011;49026;52.600;4.694;2022-08-04T14:24:57;7.00;;;1.48;;
62724;SDS011;49026;52.600;4.694;2022-08-04T14:27:23;7.25;;;1.50;;
62724;SDS011;49026;52.600;4.694;2022-08-04T14:29:49;5.75;;;1.20;;
62724;SDS011;49026;52.600;4.694;2022-08-04T14:32:18;7.28;;;1.85;;
62724;SDS011;49026;52.600;4.694;2022-08-04T14:34:44;6.75;;;1.63;;
62724;SDS011;49026;52.600;4.694;2022-08-04T14:37:10;5.00;;;1.50;;
62724;SDS011;49026;52.600;4.694;2022-08-04T14:39:41;6.82;;;1.80;;
62724;SDS011;49026;52.600;4.694;2022-08-04T14:42:07;5.75;;;1.85;;
62724;SDS011;49026;52.600;4.694;2022-08-04T14:47:20;5.20;;;1.50;;
62724;SDS011;49026;52.600;4.694;2022-08-04T14:50:02;5.05;;;1.52;;
62724;SDS011;49026;52.600;4.694;2022-08-04T14:52:31;6.88;;;1.60;;
62724;SDS011;49026;52.600;4.694;2022-08-04T14:54:57;10.57;;;1.98;;
62724;SDS011;49026;52.600;4.694;2022-08-04T14:57:23;6.32;;;1.60;;
62724;SDS011;49026;52.600;4.694;2022-08-04T14:59:49;6.53;;;1.50;;
62724;SDS011;49026;52.600;4.694;2022-08-04T15:02:15;3.05;;;1.08;;
62724;SDS011;49026;52.600;4.694;2022-08-04T15:04:43;4.43;;;1.30;;
62724;SDS011;49026;52.600;4.694;2022-08-04T15:07:10;5.18;;;1.73;;
62724;SDS011;49026;52.600;4.694;2022-08-04T15:09:35;5.95;;;1.55;;
62724;SDS011;49026;52.600;4.694;2022-08-04T15:12:02;4.68;;;1.40;;
62724;SDS011;49026;52.600;4.694;2022-08-04T15:14:28;5.68;;;1.30;;
62724;SDS011;49026;52.600;4.694;2022-08-04T15:16:54;4.75;;;1.13;;
62724;SDS011;49026;52.600;4.694;2022-08-04T15:19:19;5.45;;;1.30;;
62724;SDS011;49026;52.600;4.694;2022-08-04T15:21:48;5.88;;;1.30;;
62724;SDS011;49026;52.600;4.694;2022-08-04T15:24:13;4.47;;;1.52;;
62724;SDS011;49026;52.600;4.694;2022-08-04T15:26:42;5.00;;;1.77;;
62724;SDS011;49026;52.600;4.694;2022-08-04T15:29:14;4.65;;;1.67;;
62724;SDS011;49026;52.600;4.694;2022-08-04T15:32:04;7.80;;;1.77;;
62724;SDS011;49026;52.600;4.694;2022-08-04T15:34:47;6.32;;;1.90;;
62724;SDS011;49026;52.600;4.694;2022-08-04T15:45:55;5.63;;;1.90;;
62724;SDS011;49026;52.600;4.694;2022-08-04T15:48:26;7.45;;;1.90;;
62724;SDS011;49026;52.600;4.694;2022-08-04T15:53:24;4.85;;;2.13;;
62724;SDS011;49026;52.600;4.694;2022-08-04T15:55:54;9.00;;;2.25;;
62724;SDS011;49026;52.600;4.694;2022-08-04T15:58:20;6.38;;;2.13;;
62724;SDS011;49026;52.600;4.694;2022-08-04T16:14:06;7.78;;;1.75;;
62724;SDS011;49026;52.600;4.694;2022-08-04T16:19:04;5.43;;;2.00;;
62724;SDS011;49026;52.600;4.694;2022-08-04T16:21:34;3.80;;;1.60;;
62724;SDS011;49026;52.600;4.694;2022-08-04T16:27:03;5.53;;;1.98;;
62724;SDS011;49026;52.600;4.694;2022-08-04T16:34:29;3.40;;;1.30;;
62724;SDS011;49026;52.600;4.694;2022-08-04T16:37:00;3.33;;;1.40;;
62724;SDS011;49026;52.600;4.694;2022-08-04T16:39:27;7.30;;;1.33;;
62724;SDS011;49026;52.600;4.694;2022-08-04T16:41:53;7.38;;;1.48;;
62724;SDS011;49026;52.600;4.694;2022-08-04T16:44:32;8.63;;;1.42;;
62724;SDS011;49026;52.600;4.694;2022-08-04T16:47:03;5.82;;;1.48;;
62724;SDS011;49026;52.600;4.694;2022-08-04T16:49:30;5.35;;;1.83;;
62724;SDS011;49026;52.600;4.694;2022-08-04T16:52:04;7.95;;;1.52;;
62724;SDS011;49026;52.600;4.694;2022-08-04T16:54:34;5.15;;;1.65;;
62724;SDS011;49026;52.600;4.694;2022-08-04T16:57:09;5.78;;;2.00;;
62724;SDS011;49026;52.600;4.694;2022-08-04T16:59:37;10.82;;;2.15;;
62724;SDS011;49026;52.600;4.694;2022-08-04T17:02:03;7.82;;;1.70;;
62724;SDS011;49026;52.600;4.694;2022-08-04T17:04:31;8.88;;;1.70;;
62724;SDS011;49026;52.600;4.694;2022-08-04T17:07:00;7.63;;;1.52;;
62724;SDS011;49026;52.600;4.694;2022-08-04T17:09:27;5.85;;;1.42;;
62724;SDS011;49026;52.600;4.694;2022-08-04T17:11:53;7.43;;;1.85;;
62724;SDS011;49026;52.600;4.694;2022-08-04T17:14:26;5.05;;;1.65;;
62724;SDS011;49026;52.600;4.694;2022-08-04T17:16:56;3.58;;;1.60;;
62724;SDS011;49026;52.600;4.694;2022-08-04T17:19:23;10.57;;;1.90;;
62724;SDS011;49026;52.600;4.694;2022-08-04T17:21:49;5.45;;;1.45;;
62724;SDS011;49026;52.600;4.694;2022-08-04T17:24:15;7.03;;;1.77;;
62724;SDS011;49026;52.600;4.694;2022-08-04T17:26:40;8.57;;;1.60;;
62724;SDS011;49026;52.600;4.694;2022-08-04T17:29:08;6.63;;;1.70;;
62724;SDS011;49026;52.600;4.694;2022-08-04T17:31:39;7.72;;;1.75;;
62724;SDS011;49026;52.600;4.694;2022-08-04T17:34:11;11.80;;;2.05;;
62724;SDS011;49026;52.600;4.694;2022-08-04T17:36:40;10.07;;;2.28;;
62724;SDS011;49026;52.600;4.694;2022-08-04T17:39:12;8.95;;;1.90;;
62724;SDS011;49026;52.600;4.694;2022-08-04T17:41:39;8.63;;;1.95;;
62724;SDS011;49026;52.600;4.694;2022-08-04T17:44:05;10.18;;;1.80;;
62724;SDS011;49026;52.600;4.694;2022-08-04T17:46:37;7.63;;;1.83;;
62724;SDS011;49026;52.600;4.694;2022-08-04T17:51:35;8.70;;;2.13;;
62724;SDS011;49026;52.600;4.694;2022-08-04T17:54:18;9.18;;;1.80;;
62724;SDS011;49026;52.600;4.694;2022-08-04T17:56:56;7.30;;;1.45;;
62724;SDS011;49026;52.600;4.694;2022-08-04T17:59:42;9.38;;;1.85;;
62724;SDS011;49026;52.600;4.694;2022-08-04T18:02:08;10.52;;;2.00;;
62724;SDS011;49026;52.600;4.694;2022-08-04T18:07:15;6.93;;;1.92;;
62724;SDS011;49026;52.600;4.694;2022-08-04T18:09:55;9.52;;;2.00;;
62724;SDS011;49026;52.600;4.694;2022-08-04T18:12:27;4.63;;;1.80;;
62724;SDS011;49026;52.600;4.694;2022-08-04T18:15:00;8.73;;;1.77;;
62724;SDS011;49026;52.600;4.694;2022-08-04T18:17:36;5.60;;;2.13;;
62724;SDS011;49026;52.600;4.694;2022-08-04T18:20:03;6.32;;;2.03;;
62724;SDS011;49026;52.600;4.694;2022-08-04T18:22:30;6.70;;;2.10;;
62724;SDS011;49026;52.600;4.694;2022-08-04T18:24:56;8.90;;;2.30;;
62724;SDS011;49026;52.600;4.694;2022-08-04T18:27:25;9.30;;;2.35;;
62724;SDS011;49026;52.600;4.694;2022-08-04T18:29:55;6.68;;;1.85;;
62724;SDS011;49026;52.600;4.694;2022-08-04T18:32:23;4.13;;;1.58;;
62724;SDS011;49026;52.600;4.694;2022-08-04T18:34:50;11.00;;;2.08;;
62724;SDS011;49026;52.600;4.694;2022-08-04T18:37:19;8.02;;;1.95;;
62724;SDS011;49026;52.600;4.694;2022-08-04T18:39:45;4.95;;;1.80;;
62724;SDS011;49026;52.600;4.694;2022-08-04T18:42:16;12.00;;;2.65;;
62724;SDS011;49026;52.600;4.694;2022-08-04T18:44:41;14.35;;;3.80;;
62724;SDS011;49026;52.600;4.694;2022-08-04T18:47:11;7.63;;;2.03;;
62724;SDS011;49026;52.600;4.694;2022-08-04T18:49:36;9.82;;;2.08;;
62724;SDS011;49026;52.600;4.694;2022-08-04T18:52:04;6.93;;;1.77;;
62724;SDS011;49026;52.600;4.694;2022-08-04T18:54:34;7.60;;;1.83;;
62724;SDS011;49026;52.600;4.694;2022-08-04T18:56:59;4.53;;;2.00;;
62724;SDS011;49026;52.600;4.694;2022-08-04T18:59:24;7.43;;;2.05;;
62724;SDS011;49026;52.600;4.694;2022-08-04T19:01:50;6.22;;;1.77;;
62724;SDS011;49026;52.600;4.694;2022-08-04T19:04:18;7.00;;;1.67;;
62724;SDS011;49026;52.600;4.694;2022-08-04T19:06:45;6.80;;;2.00;;
62724;SDS011;49026;52.600;4.694;2022-08-04T19:09:11;5.18;;;1.90;;
62724;SDS011;49026;52.600;4.694;2022-08-04T19:11:38;11.82;;;2.10;;
62724;SDS011;49026;52.600;4.694;2022-08-04T19:14:04;7.90;;;2.47;;
62724;SDS011;49026;52.600;4.694;2022-08-04T19:16:32;6.72;;;2.10;;
62724;SDS011;49026;52.600;4.694;2022-08-04T19:19:12;5.70;;;2.03;;
62724;SDS011;49026;52.600;4.694;2022-08-04T19:21:39;8.00;;;1.83;;
62724;SDS011;49026;52.600;4.694;2022-08-04T19:24:06;10.13;;;2.70;;
62724;SDS011;49026;52.600;4.694;2022-08-04T19:26:32;7.68;;;3.40;;
62724;SDS011;49026;52.600;4.694;2022-08-04T19:28:59;10.55;;;3.33;;
62724;SDS011;49026;52.600;4.694;2022-08-04T19:31:25;9.05;;;2.95;;
62724;SDS011;49026;52.600;4.694;2022-08-04T19:33:50;7.63;;;2.45;;
62724;SDS011;49026;52.600;4.694;2022-08-04T19:36:15;14.65;;;4.10;;
62724;SDS011;49026;52.600;4.694;2022-08-04T19:38:41;7.90;;;3.50;;
62724;SDS011;49026;52.600;4.694;2022-08-04T19:41:07;13.35;;;3.08;;